Time;durP1;ratioP1;P1;durP2;ratioP2;P2;SDS_P1;SDS_P2;PMS_P1;PMS_P2;Temp;Humidity;BMP_temperature;BMP_pressure;BME280_temperature;BME280_humidity;BME280_pressure;Samples;Min_cycle;Max_cycle;Signal;HPM_P1;HPM_P2
2023/09/18 00:00:27;;;;;;;10.60;7.72;;;;;;;;;;6275673;28;20060;-83
2023/09/18 00:03:29;;;;;;;9.73;8.07;;;;;;;;;;6276329;28;20241;-85
2023/09/18 00:06:31;;;;;;;11.18;8.20;;;;;;;;;;6275745;28;20060;-83
2023/09/18 00:09:33;;;;;;;8.15;7.35;;;;;;;;;;6276343;28;20049;-83
2023/09/18 00:12:36;;;;;;;9.85;7.57;;;;;;;;;;6259172;28;20061;-82
2023/09/18 00:15:38;;;;;;;10.07;7.68;;;;;;;;;;6254135;28;20060;-80
2023/09/18 00:18:40;;;;;;;12.82;8.75;;;;;;;;;;6248480;28;20056;-81
2023/09/18 00:21:42;;;;;;;11.57;9.40;;;;;;;;;;6250933;28;20074;-81
2023/09/18 00:24:46;;;;;;;14.85;9.23;;;;;;;;;;6252625;28;20056;-82
2023/09/18 00:27:48;;;;;;;;;;;;;;;;;;6248954;28;20061;-85
2023/09/18 00:30:51;;;;;;;17.17;9.18;;;;;;;;;;6253409;28;19963;-84
2023/09/18 00:33:53;;;;;;;13.87;9.97;;;;;;;;;;6248924;28;20061;-85
2023/09/18 00:36:54;;;;;;;12.75;9.40;;;;;;;;;;6251043;28;20165;-82
2023/09/18 00:39:56;;;;;;;13.10;9.45;;;;;;;;;;6249578;28;20072;-81
2023/09/18 00:42:59;;;;;;;12.52;9.73;;;;;;;;;;6247899;28;20065;-81
2023/09/18 00:46:01;;;;;;;14.30;9.50;;;;;;;;;;6249034;28;20056;-82
2023/09/18 00:49:04;;;;;;;12.30;9.57;;;;;;;;;;6247667;28;20345;-81
2023/09/18 00:52:06;;;;;;;12.60;9.23;;;;;;;;;;6248378;28;20060;-80
2023/09/18 00:55:09;;;;;;;13.65;9.77;;;;;;;;;;6240680;28;20049;-84
2023/09/18 00:58:12;;;;;;;12.50;9.30;;;;;;;;;;6248387;28;20269;-82
2023/09/18 01:01:18;;;;;;;14.75;9.88;;;;;;;;;;6250626;28;20375;-84
2023/09/18 01:04:20;;;;;;;11.93;8.70;;;;;;;;;;6238927;28;20081;-81
2023/09/18 01:07:22;;;;;;;12.13;9.53;;;;;;;;;;6251663;28;20053;-80
2023/09/18 01:10:26;;;;;;;14.52;9.00;;;;;;;;;;6250850;28;20229;-80
2023/09/18 01:13:33;;;;;;;11.32;9.23;;;;;;;;;;6250163;28;20332;-82
2023/09/18 01:16:38;;;;;;;11.40;8.88;;;;;;;;;;6276920;28;20048;-80
2023/09/18 01:19:41;;;;;;;16.25;9.13;;;;;;;;;;6272827;28;20347;-84
2023/09/18 01:22:44;;;;;;;12.43;10.48;;;;;;;;;;6271537;28;20268;-76
2023/09/18 01:25:46;;;;;;;;;;;;;;;;;;6269374;28;20056;-76
2023/09/18 01:28:47;;;;;;;15.82;9.95;;;;;;;;;;6275838;28;19916;-77
2023/09/18 01:31:51;;;;;;;12.40;8.88;;;;;;;;;;6274154;28;20061;-76
2023/09/18 01:34:55;;;;;;;11.38;8.27;;;;;;;;;;6274342;28;20080;-76
2023/09/18 01:38:00;;;;;;;13.25;8.32;;;;;;;;;;6274728;28;20103;-75
2023/09/18 01:41:02;;;;;;;11.68;8.77;;;;;;;;;;6278505;28;20053;-75
2023/09/18 01:44:07;;;;;;;13.57;7.80;;;;;;;;;;6280911;28;20282;-77
2023/09/18 01:47:14;;;;;;;11.10;8.95;;;;;;;;;;6280375;28;20055;-78
2023/09/18 01:50:16;;;;;;;12.00;7.95;;;;;;;;;;6279637;28;20116;-80
2023/09/18 01:53:19;;;;;;;10.13;8.15;;;;;;;;;;6274606;28;20063;-78
2023/09/18 01:56:20;;;;;;;12.35;7.97;;;;;;;;;;6276637;28;20116;-79
2023/09/18 01:59:23;;;;;;;13.98;8.63;;;;;;;;;;6279958;28;20135;-77
2023/09/18 02:02:25;;;;;;;13.37;8.63;;;;;;;;;;6262494;28;20049;-77
2023/09/18 02:05:27;;;;;;;12.13;9.30;;;;;;;;;;6275886;28;20053;-77
2023/09/18 02:08:30;;;;;;;15.63;9.25;;;;;;;;;;6253574;28;20065;-80
2023/09/18 02:11:32;;;;;;;16.08;9.23;;;;;;;;;;6255464;28;20056;-76
2023/09/18 02:14:34;;;;;;;13.32;9.27;;;;;;;;;;6254333;28;20057;-75
2023/09/18 02:17:35;;;;;;;14.90;9.88;;;;;;;;;;6267850;28;20125;-75
2023/09/18 02:20:47;;;;;;;13.63;9.98;;;;;;;;;;6252192;28;20045;-77
2023/09/18 02:23:52;;;;;;;13.48;10.48;;;;;;;;;;6250990;28;20053;-74
2023/09/18 02:26:53;;;;;;;12.30;9.07;;;;;;;;;;6260416;28;20057;-76
2023/09/18 02:29:55;;;;;;;16.40;9.93;;;;;;;;;;6266027;28;20060;-76
2023/09/18 02:32:57;;;;;;;12.00;9.43;;;;;;;;;;6248391;28;20082;-76
2023/09/18 02:35:59;;;;;;;13.23;9.25;;;;;;;;;;6264738;28;20116;-77
2023/09/18 02:39:03;;;;;;;13.27;8.93;;;;;;;;;;6252023;28;20065;-76
2023/09/18 02:42:05;;;;;;;11.43;9.15;;;;;;;;;;6248497;28;20049;-77
2023/09/18 02:45:09;;;;;;;13.32;9.05;;;;;;;;;;6257213;28;20060;-81
2023/09/18 02:48:11;;;;;;;13.80;9.60;;;;;;;;;;6277822;28;20052;-77
2023/09/18 02:51:13;;;;;;;15.23;9.48;;;;;;;;;;6277581;28;20056;-74
2023/09/18 02:54:16;;;;;;;12.57;9.43;;;;;;;;;;6276656;28;20056;-76
2023/09/18 02:57:18;;;;;;;14.70;9.73;;;;;;;;;;6267760;28;20989;-80
2023/09/18 03:00:21;;;;;;;15.18;8.90;;;;;;;;;;6274700;28;20049;-77
2023/09/18 03:03:22;;;;;;;13.40;9.57;;;;;;;;;;6275913;28;20053;-78
2023/09/18 03:06:25;;;;;;;14.80;9.77;;;;;;;;;;6275644;28;20075;-77
2023/09/18 03:09:31;;;;;;;15.83;9.60;;;;;;;;;;6275574;28;20060;-75
2023/09/18 03:12:36;;;;;;;12.77;9.77;;;;;;;;;;6274567;28;20057;-76
2023/09/18 03:15:38;;;;;;;15.77;10.10;;;;;;;;;;6275882;28;20112;-77
2023/09/18 03:18:39;;;;;;;13.15;9.23;;;;;;;;;;6276702;28;20233;-77
2023/09/18 03:21:41;;;;;;;14.48;9.60;;;;;;;;;;6276217;28;20052;-76
2023/09/18 03:24:44;;;;;;;12.70;9.25;;;;;;;;;;6247729;28;21112;-77
2023/09/18 03:27:46;;;;;;;18.52;12.10;;;;;;;;;;6251443;28;20045;-76
2023/09/18 03:30:48;;;;;;;19.48;13.70;;;;;;;;;;6267977;28;20040;-76
2023/09/18 03:33:50;;;;;;;17.35;12.65;;;;;;;;;;6274410;28;20060;-77
2023/09/18 03:36:51;;;;;;;20.02;13.13;;;;;;;;;;6262709;28;20060;-78
2023/09/18 03:39:55;;;;;;;19.95;12.75;;;;;;;;;;6271678;28;20048;-79
2023/09/18 03:42:57;;;;;;;19.95;15.07;;;;;;;;;;6274975;28;20053;-74
2023/09/18 03:46:04;;;;;;;19.48;15.00;;;;;;;;;;6275395;28;20134;-79
2023/09/18 03:49:06;;;;;;;22.08;14.95;;;;;;;;;;6277816;28;20063;-75
2023/09/18 03:52:08;;;;;;;20.77;14.82;;;;;;;;;;6272043;28;20094;-75
2023/09/18 03:55:14;;;;;;;21.23;14.18;;;;;;;;;;6275366;28;20222;-78
2023/09/18 03:58:16;;;;;;;22.08;14.02;;;;;;;;;;6272388;28;20053;-76
2023/09/18 04:01:17;;;;;;;19.95;14.70;;;;;;;;;;6260115;28;20045;-76
2023/09/18 04:04:19;;;;;;;25.90;15.40;;;;;;;;;;6254864;28;20041;-77
2023/09/18 04:07:21;;;;;;;21.33;15.63;;;;;;;;;;6247313;28;20049;-75
2023/09/18 04:10:29;;;;;;;24.00;16.27;;;;;;;;;;6235680;28;20049;-76
2023/09/18 04:13:32;;;;;;;22.58;15.93;;;;;;;;;;6264927;28;20055;-77
2023/09/18 04:16:36;;;;;;;25.02;17.75;;;;;;;;;;6240880;28;20053;-75
2023/09/18 04:19:38;;;;;;;;;;;;;;;;;;6269015;28;20061;-76
2023/09/18 04:22:49;;;;;;;28.17;18.95;;;;;;;;;;6251758;28;19964;-76
2023/09/18 04:25:53;;;;;;;25.00;18.50;;;;;;;;;;6261262;28;20083;-76
2023/09/18 04:28:54;;;;;;;24.25;18.00;;;;;;;;;;6265505;28;20052;-76
2023/09/18 04:31:57;;;;;;;22.02;16.70;;;;;;;;;;6247412;28;20085;-75
2023/09/18 04:34:59;;;;;;;27.52;16.25;;;;;;;;;;6246445;28;20053;-78
2023/09/18 04:38:01;;;;;;;24.05;16.52;;;;;;;;;;6266581;28;20563;-77
2023/09/18 04:41:06;;;;;;;24.15;17.40;;;;;;;;;;6273733;28;20383;-76
2023/09/18 04:44:09;;;;;;;26.50;19.15;;;;;;;;;;6253076;28;20064;-77
2023/09/18 04:47:11;;;;;;;28.97;20.77;;;;;;;;;;6272723;28;20049;-78
2023/09/18 04:50:13;;;;;;;30.52;21.23;;;;;;;;;;6270479;28;20502;-78
2023/09/18 04:53:15;;;;;;;34.80;22.67;;;;;;;;;;6250729;28;20141;-77
2023/09/18 04:56:18;;;;;;;28.77;22.67;;;;;;;;;;6249502;28;20069;-76
2023/09/18 04:59:20;;;;;;;29.02;21.52;;;;;;;;;;6243631;28;20061;-78
2023/09/18 05:02:25;;;;;;;25.15;19.25;;;;;;;;;;6249332;28;20088;-78
2023/09/18 05:05:27;;;;;;;24.38;19.08;;;;;;;;;;6240277;28;20156;-79
2023/09/18 05:08:29;;;;;;;28.40;20.33;;;;;;;;;;6261226;28;20053;-78
2023/09/18 05:11:32;;;;;;;28.90;20.00;;;;;;;;;;6268269;28;20051;-80
2023/09/18 05:14:34;;;;;;;29.05;22.10;;;;;;;;;;6275912;28;20120;-76
2023/09/18 05:17:43;;;;;;;30.10;21.92;;;;;;;;;;6278925;28;20345;-76
2023/09/18 05:20:45;;;;;;;29.42;21.20;;;;;;;;;;6276051;28;20210;-77
2023/09/18 05:23:47;;;;;;;30.85;21.98;;;;;;;;;;6261601;28;20053;-78
2023/09/18 05:26:50;;;;;;;30.08;21.50;;;;;;;;;;6276041;28;20059;-75
2023/09/18 05:29:52;;;;;;;31.88;22.15;;;;;;;;;;6262859;28;20059;-81
2023/09/18 05:32:53;;;;;;;32.90;23.70;;;;;;;;;;6272885;28;20098;-75
2023/09/18 05:35:55;;;;;;;32.38;24.50;;;;;;;;;;6261622;28;20055;-79
2023/09/18 05:38:59;;;;;;;34.50;24.10;;;;;;;;;;6254419;28;20057;-75
2023/09/18 05:42:02;;;;;;;34.17;23.05;;;;;;;;;;6250968;28;20057;-76
2023/09/18 05:45:05;;;;;;;34.60;24.08;;;;;;;;;;6249097;28;20072;-76
2023/09/18 05:48:07;;;;;;;34.17;24.65;;;;;;;;;;6248540;28;20057;-78
2023/09/18 05:51:08;;;;;;;33.58;24.25;;;;;;;;;;6253981;28;20056;-78
2023/09/18 05:54:10;;;;;;;33.90;25.35;;;;;;;;;;6253605;28;20068;-77
2023/09/18 05:57:13;;;;;;;38.28;26.95;;;;;;;;;;6253170;28;20099;-75
2023/09/18 06:00:17;;;;;;;44.00;30.67;;;;;;;;;;6248893;28;20057;-74
2023/09/18 06:03:20;;;;;;;43.55;31.42;;;;;;;;;;6252478;28;20075;-76
2023/09/18 06:06:22;;;;;;;43.80;31.17;;;;;;;;;;6251734;28;20092;-75
2023/09/18 06:09:24;;;;;;;45.85;30.25;;;;;;;;;;6251638;28;20116;-72
2023/09/18 06:12:27;;;;;;;43.28;32.58;;;;;;;;;;6249158;28;20075;-74
2023/09/18 06:15:28;;;;;;;45.10;32.72;;;;;;;;;;6270269;28;20341;-74
2023/09/18 06:18:30;;;;;;;44.13;32.00;;;;;;;;;;6265947;28;20060;-75
2023/09/18 06:21:32;;;;;;;43.60;31.95;;;;;;;;;;6269689;28;20107;-71
2023/09/18 06:24:34;;;;;;;44.53;33.47;;;;;;;;;;6268334;28;20057;-77
2023/09/18 06:27:38;;;;;;;46.50;34.17;;;;;;;;;;6256044;28;20060;-76
2023/09/18 06:30:39;;;;;;;45.92;33.13;;;;;;;;;;6249783;28;20249;-76
2023/09/18 06:33:41;;;;;;;46.25;32.83;;;;;;;;;;6248410;28;20053;-77
2023/09/18 06:36:43;;;;;;;49.33;33.40;;;;;;;;;;6266684;28;20211;-76
2023/09/18 06:39:45;;;;;;;46.55;33.10;;;;;;;;;;6257922;28;20140;-77
2023/09/18 06:42:48;;;;;;;50.22;35.10;;;;;;;;;;6259807;28;20111;-78
2023/09/18 06:45:50;;;;;;;50.17;35.35;;;;;;;;;;6269327;28;20068;-78
2023/09/18 06:48:52;;;;;;;51.42;36.30;;;;;;;;;;6259430;28;20109;-76
2023/09/18 06:51:54;;;;;;;51.78;35.92;;;;;;;;;;6263898;28;20939;-76
2023/09/18 06:54:57;;;;;;;49.78;36.80;;;;;;;;;;6277416;28;20108;-77
2023/09/18 06:58:01;;;;;;;55.35;37.42;;;;;;;;;;6275581;28;20060;-77
2023/09/18 07:01:03;;;;;;;54.63;39.10;;;;;;;;;;6278187;28;20063;-80
2023/09/18 07:04:05;;;;;;;54.00;38.83;;;;;;;;;;6276964;28;20052;-74
2023/09/18 07:07:07;;;;;;;61.17;40.40;;;;;;;;;;6279148;28;20341;-76
2023/09/18 07:10:09;;;;;;;59.10;40.72;;;;;;;;;;6279434;28;20041;-77
2023/09/18 07:13:12;;;;;;;60.35;39.72;;;;;;;;;;6276071;28;20095;-77
2023/09/18 07:16:14;;;;;;;56.17;39.35;;;;;;;;;;6276327;28;20082;-74
2023/09/18 07:19:16;;;;;;;62.97;40.58;;;;;;;;;;6276495;28;20049;-76
2023/09/18 07:22:18;;;;;;;54.90;37.77;;;;;;;;;;6276808;28;20052;-77
2023/09/18 07:25:20;;;;;;;54.33;36.58;;;;;;;;;;6275226;28;20060;-77
2023/09/18 07:28:23;;;;;;;57.88;38.75;;;;;;;;;;6277556;28;20233;-77
2023/09/18 07:31:25;;;;;;;54.20;38.17;;;;;;;;;;6275916;28;20041;-80
2023/09/18 07:34:26;;;;;;;54.72;37.22;;;;;;;;;;6274578;28;20060;-77
2023/09/18 07:37:28;;;;;;;49.92;37.08;;;;;;;;;;6275059;28;20147;-78
2023/09/18 07:40:30;;;;;;;53.85;36.95;;;;;;;;;;6275300;28;20044;-78
2023/09/18 07:43:33;;;;;;;50.55;35.60;;;;;;;;;;6276582;28;20063;-77
2023/09/18 07:46:35;;;;;;;55.25;36.65;;;;;;;;;;6258921;28;20045;-78
2023/09/18 07:49:37;;;;;;;55.30;35.50;;;;;;;;;;6270778;28;20052;-75
2023/09/18 07:52:39;;;;;;;51.17;35.50;;;;;;;;;;6278141;28;20057;-78
2023/09/18 07:55:40;;;;;;;50.17;35.03;;;;;;;;;;6269150;28;20053;-78
2023/09/18 07:58:44;;;;;;;52.05;35.97;;;;;;;;;;6250304;28;20045;-78
2023/09/18 08:01:45;;;;;;;52.63;35.42;;;;;;;;;;6270699;28;20044;-79
2023/09/18 08:04:47;;;;;;;52.28;35.03;;;;;;;;;;6269502;28;20049;-79
2023/09/18 08:07:51;;;;;;;51.45;33.28;;;;;;;;;;6277014;28;20761;-78
2023/09/18 08:10:53;;;;;;;48.90;33.15;;;;;;;;;;6276010;28;20128;-78
2023/09/18 08:13:56;;;;;;;48.67;33.47;;;;;;;;;;6275294;28;20115;-77
2023/09/18 08:16:58;;;;;;;47.40;32.92;;;;;;;;;;6275615;28;20053;-80
2023/09/18 08:20:00;;;;;;;42.67;31.90;;;;;;;;;;6275530;28;20056;-78
2023/09/18 08:23:03;;;;;;;46.60;30.85;;;;;;;;;;6274993;28;20041;-78
2023/09/18 08:26:05;;;;;;;46.28;30.30;;;;;;;;;;6274002;28;20063;-75
2023/09/18 08:29:09;;;;;;;44.08;30.50;;;;;;;;;;6270981;28;20252;-75
2023/09/18 08:32:10;;;;;;;37.83;27.65;;;;;;;;;;6265268;28;20053;-78
2023/09/18 08:35:12;;;;;;;40.78;29.23;;;;;;;;;;6274671;28;20041;-78
2023/09/18 08:38:15;;;;;;;42.03;29.70;;;;;;;;;;6275404;28;20037;-76
2023/09/18 08:41:19;;;;;;;41.53;28.75;;;;;;;;;;6276014;28;20059;-75
2023/09/18 08:44:24;;;;;;;40.67;29.20;;;;;;;;;;6274961;28;20106;-77
2023/09/18 08:47:27;;;;;;;41.90;29.42;;;;;;;;;;6277220;28;20056;-78
2023/09/18 08:50:29;;;;;;;38.85;28.48;;;;;;;;;;6279950;28;20045;-75
2023/09/18 08:53:31;;;;;;;41.50;28.55;;;;;;;;;;6280213;28;20087;-77
2023/09/18 08:56:34;;;;;;;40.83;27.30;;;;;;;;;;6281078;28;20053;-77
2023/09/18 08:59:38;;;;;;;34.28;25.98;;;;;;;;;;6282045;28;20646;-76
2023/09/18 09:02:40;;;;;;;34.15;26.02;;;;;;;;;;6279921;28;20206;-77
2023/09/18 09:05:41;;;;;;;34.55;26.30;;;;;;;;;;6281260;28;20047;-76
2023/09/18 09:08:43;;;;;;;38.17;26.88;;;;;;;;;;6280256;28;20061;-78
2023/09/18 09:11:50;;;;;;;37.88;27.27;;;;;;;;;;6276962;28;20141;-77
2023/09/18 09:15:05;;;;;;;36.95;26.40;;;;;;;;;;6259906;28;20910;-77
2023/09/18 09:18:08;;;;;;;37.30;26.38;;;;;;;;;;6253576;28;20037;-76
2023/09/18 09:21:10;;;;;;;35.90;27.23;;;;;;;;;;6273060;28;20049;-76
2023/09/18 09:24:13;;;;;;;37.80;26.10;;;;;;;;;;6249920;28;20220;-76
2023/09/18 09:27:18;;;;;;;36.28;25.58;;;;;;;;;;6262343;28;20056;-77
2023/09/18 09:30:23;;;;;;;35.30;25.33;;;;;;;;;;6256838;28;20241;-75
2023/09/18 09:33:25;;;;;;;35.58;25.17;;;;;;;;;;6263173;28;20094;-76
2023/09/18 09:36:27;;;;;;;36.80;25.92;;;;;;;;;;6270977;28;20063;-75
2023/09/18 09:39:30;;;;;;;38.28;26.55;;;;;;;;;;6264956;28;20054;-76
2023/09/18 09:42:39;;;;;;;37.33;25.38;;;;;;;;;;6256699;28;20076;-76
2023/09/18 09:45:43;;;;;;;37.58;25.85;;;;;;;;;;6255233;28;20061;-76
2023/09/18 09:49:01;;;;;;;36.28;25.98;;;;;;;;;;6280106;28;20049;-76
2023/09/18 09:52:03;;;;;;;34.70;25.10;;;;;;;;;;6258060;28;20060;-76
2023/09/18 09:55:19;;;;;;;34.67;26.33;;;;;;;;;;6252323;28;20060;-76
2023/09/18 09:58:30;;;;;;;33.30;24.55;;;;;;;;;;6256052;28;20049;-76
2023/09/18 10:01:34;;;;;;;35.50;25.40;;;;;;;;;;6254747;28;20050;-76
2023/09/18 10:04:37;;;;;;;31.65;23.95;;;;;;;;;;6254049;28;20057;-77
2023/09/18 10:07:39;;;;;;;32.40;24.67;;;;;;;;;;6246558;28;20101;-78
2023/09/18 10:10:44;;;;;;;34.75;24.45;;;;;;;;;;6257044;28;20628;-79
2023/09/18 10:13:49;;;;;;;35.25;23.52;;;;;;;;;;6256385;28;20057;-80
2023/09/18 10:16:54;;;;;;;31.13;23.05;;;;;;;;;;6251100;28;20159;-78
2023/09/18 10:20:16;;;;;;;31.38;23.40;;;;;;;;;;6258765;28;20128;-76
2023/09/18 10:23:29;;;;;;;30.08;22.70;;;;;;;;;;6255721;28;20045;-76
2023/09/18 10:26:33;;;;;;;28.67;22.60;;;;;;;;;;6269606;28;20087;-78
2023/09/18 10:29:37;;;;;;;31.42;21.67;;;;;;;;;;6253741;28;20067;-76
2023/09/18 10:32:41;;;;;;;43.67;30.88;;;;;;;;;;6251354;28;20052;-77
2023/09/18 10:35:44;;;;;;;40.42;30.33;;;;;;;;;;6256629;28;21123;-76
2023/09/18 10:38:49;;;;;;;32.05;25.52;;;;;;;;;;6273842;28;20052;-76
2023/09/18 10:41:53;;;;;;;26.75;20.58;;;;;;;;;;6276049;28;20106;-75
2023/09/18 10:44:55;;;;;;;25.23;20.13;;;;;;;;;;6279439;28;20329;-77
2023/09/18 10:47:58;;;;;;;31.10;20.80;;;;;;;;;;6277837;28;20064;-76
2023/09/18 10:51:05;;;;;;;29.58;19.85;;;;;;;;;;6280513;28;20112;-77
2023/09/18 10:54:08;;;;;;;26.40;19.35;;;;;;;;;;6277001;28;20111;-76
2023/09/18 10:57:10;;;;;;;25.95;18.45;;;;;;;;;;6276531;28;20095;-76
2023/09/18 11:00:14;;;;;;;25.48;18.38;;;;;;;;;;6276250;28;20044;-76
2023/09/18 11:03:22;;;;;;;26.52;17.90;;;;;;;;;;6277076;28;20115;-77
2023/09/18 11:06:26;;;;;;;23.25;16.48;;;;;;;;;;6273559;28;20059;-77
2023/09/18 11:09:29;;;;;;;29.50;17.13;;;;;;;;;;6278734;28;20048;-81
2023/09/18 11:12:44;;;;;;;19.30;14.68;;;;;;;;;;6275475;28;20229;-78
2023/09/18 11:15:46;;;;;;;26.52;16.23;;;;;;;;;;6277035;28;20380;-76
2023/09/18 11:18:52;;;;;;;23.45;16.52;;;;;;;;;;6278779;28;20044;-75
2023/09/18 11:22:08;;;;;;;20.70;15.55;;;;;;;;;;6275967;28;20053;-75
2023/09/18 11:25:47;;;;;;;20.67;15.15;;;;;;;;;;6277463;28;20084;-76
2023/09/18 11:28:50;;;;;;;23.48;15.63;;;;;;;;;;6269105;28;20206;-76
2023/09/18 11:31:54;;;;;;;20.65;14.38;;;;;;;;;;6277198;28;20060;-76
2023/09/18 11:35:09;;;;;;;23.00;16.13;;;;;;;;;;6276431;28;20116;-76
2023/09/18 11:38:11;;;;;;;22.33;14.38;;;;;;;;;;6276948;28;20102;-76
2023/09/18 11:41:26;;;;;;;18.83;14.27;;;;;;;;;;6276062;28;20264;-75
2023/09/18 11:44:41;;;;;;;23.92;15.52;;;;;;;;;;6269993;28;20038;-75
2023/09/18 11:47:46;;;;;;;19.73;14.32;;;;;;;;;;6261286;28;20064;-77
2023/09/18 11:50:50;;;;;;;19.70;15.48;;;;;;;;;;6278588;28;20083;-76
2023/09/18 11:53:56;;;;;;;20.88;15.10;;;;;;;;;;6274828;28;20193;-75
2023/09/18 11:57:05;;;;;;;30.73;20.33;;;;;;;;;;6277520;28;20057;-75
2023/09/18 12:00:22;;;;;;;28.52;18.73;;;;;;;;;;6276251;28;20053;-76
2023/09/18 12:03:28;;;;;;;56.72;37.20;;;;;;;;;;6276988;28;20049;-76
2023/09/18 12:06:31;;;;;;;23.83;16.45;;;;;;;;;;6277118;28;20090;-75
2023/09/18 12:09:33;;;;;;;22.25;14.23;;;;;;;;;;6278296;28;20080;-76
2023/09/18 12:12:34;;;;;;;20.63;14.25;;;;;;;;;;6274535;28;20337;-77
2023/09/18 12:15:39;;;;;;;20.52;14.02;;;;;;;;;;6261068;28;20061;-76
2023/09/18 12:18:47;;;;;;;17.20;13.32;;;;;;;;;;6262807;28;20061;-75
2023/09/18 12:21:50;;;;;;;20.77;14.57;;;;;;;;;;6268731;28;20049;-75
2023/09/18 12:24:52;;;;;;;;;;;;;;;;;;6276088;28;20053;-75
2023/09/18 12:27:55;;;;;;;20.27;13.95;;;;;;;;;;6255321;28;19925;-74
2023/09/18 12:31:04;;;;;;;20.30;13.90;;;;;;;;;;6259408;28;20053;-74
2023/09/18 12:34:15;;;;;;;22.45;15.10;;;;;;;;;;6264658;28;20337;-76
2023/09/18 12:37:18;;;;;;;21.45;13.98;;;;;;;;;;6274592;28;20064;-75
2023/09/18 12:40:26;;;;;;;19.55;13.52;;;;;;;;;;6273726;28;20049;-75
2023/09/18 12:43:30;;;;;;;20.42;14.45;;;;;;;;;;6266412;28;20061;-75
2023/09/18 12:46:32;;;;;;;23.10;14.63;;;;;;;;;;6269438;28;20110;-74
2023/09/18 12:49:34;;;;;;;22.75;14.40;;;;;;;;;;6268726;28;20357;-75
2023/09/18 12:52:37;;;;;;;20.48;13.85;;;;;;;;;;6258081;28;20057;-76
2023/09/18 12:55:39;;;;;;;19.10;14.57;;;;;;;;;;6270142;28;20061;-77
2023/09/18 12:58:42;;;;;;;19.75;14.88;;;;;;;;;;6272421;28;20052;-74
2023/09/18 13:01:47;;;;;;;26.20;16.42;;;;;;;;;;6274065;28;20052;-83
2023/09/18 13:04:53;;;;;;;25.27;15.10;;;;;;;;;;6275751;28;20045;-78
2023/09/18 13:07:56;;;;;;;25.13;16.75;;;;;;;;;;6276986;28;20061;-77
2023/09/18 13:10:58;;;;;;;;;;;;;;;;;;6276294;28;20360;-76
2023/09/18 13:14:00;;;;;;;24.80;16.95;;;;;;;;;;6277322;28;19931;-76
2023/09/18 13:17:04;;;;;;;30.30;19.48;;;;;;;;;;6272210;28;20057;-75
2023/09/18 13:20:14;;;;;;;27.08;19.33;;;;;;;;;;6278403;28;20179;-76
2023/09/18 13:23:17;;;;;;;29.35;19.42;;;;;;;;;;6276903;28;20049;-77
2023/09/18 13:26:19;;;;;;;34.90;20.13;;;;;;;;;;6278720;28;20061;-81
2023/09/18 13:29:21;;;;;;;29.67;19.52;;;;;;;;;;6272610;28;20056;-76
2023/09/18 13:32:23;;;;;;;33.83;19.90;;;;;;;;;;6276757;28;20276;-76
2023/09/18 13:35:25;;;;;;;37.65;22.05;;;;;;;;;;6271893;28;20058;-76
2023/09/18 13:38:28;;;;;;;28.38;20.35;;;;;;;;;;6275338;28;20296;-77
2023/09/18 13:41:31;;;;;;;30.75;21.48;;;;;;;;;;6282363;28;20329;-77
2023/09/18 13:44:32;;;;;;;37.70;20.98;;;;;;;;;;6281410;28;20041;-76
2023/09/18 13:47:35;;;;;;;31.85;20.40;;;;;;;;;;6284097;28;20103;-77
2023/09/18 13:50:37;;;;;;;29.63;20.05;;;;;;;;;;6280458;28;20056;-77
2023/09/18 13:53:41;;;;;;;29.90;18.70;;;;;;;;;;6282752;28;20052;-77
2023/09/18 13:56:42;;;;;;;27.58;19.35;;;;;;;;;;6280397;28;20588;-77
2023/09/18 13:59:44;;;;;;;24.42;18.88;;;;;;;;;;6280530;28;20052;-76
2023/09/18 14:02:46;;;;;;;28.77;19.25;;;;;;;;;;6280833;28;20052;-77
2023/09/18 14:05:48;;;;;;;33.70;21.30;;;;;;;;;;6278458;28;20056;-77
2023/09/18 14:08:51;;;;;;;28.17;20.90;;;;;;;;;;6280411;28;20222;-77
2023/09/18 14:11:54;;;;;;;27.80;19.65;;;;;;;;;;6277539;28;20050;-75
2023/09/18 14:14:55;;;;;;;29.67;19.80;;;;;;;;;;6250774;28;20052;-77
2023/09/18 14:17:57;;;;;;;29.73;20.17;;;;;;;;;;6256138;28;20099;-76
2023/09/18 14:20:59;;;;;;;31.52;21.30;;;;;;;;;;6257195;28;20057;-78
2023/09/18 14:24:02;;;;;;;29.60;20.67;;;;;;;;;;6256390;28;20337;-75
2023/09/18 14:27:05;;;;;;;29.17;19.65;;;;;;;;;;6256707;28;20091;-75
2023/09/18 14:30:08;;;;;;;26.70;19.38;;;;;;;;;;6267601;28;20053;-75
2023/09/18 14:33:10;;;;;;;33.42;20.25;;;;;;;;;;6256739;28;20591;-77
2023/09/18 14:36:12;;;;;;;33.92;20.45;;;;;;;;;;6256073;28;20116;-78
2023/09/18 14:39:15;;;;;;;26.70;19.95;;;;;;;;;;6259548;28;20215;-76
2023/09/18 14:42:17;;;;;;;28.88;20.85;;;;;;;;;;6255350;28;20325;-75
2023/09/18 14:45:18;;;;;;;35.25;21.55;;;;;;;;;;6258210;28;20063;-78
2023/09/18 14:48:20;;;;;;;27.13;19.10;;;;;;;;;;6280994;28;20083;-82
2023/09/18 14:51:22;;;;;;;33.78;20.65;;;;;;;;;;6280993;28;20056;-79
2023/09/18 14:54:25;;;;;;;26.10;19.67;;;;;;;;;;6278312;28;20240;-76
2023/09/18 14:57:27;;;;;;;34.95;20.85;;;;;;;;;;6280374;28;20090;-73
2023/09/18 15:00:29;;;;;;;28.45;20.52;;;;;;;;;;6280332;28;20045;-76
2023/09/18 15:03:30;;;;;;;27.45;20.60;;;;;;;;;;6279685;28;20057;-76
2023/09/18 15:06:33;;;;;;;34.97;20.58;;;;;;;;;;6277159;28;20099;-77
2023/09/18 15:09:37;;;;;;;28.88;19.80;;;;;;;;;;6280023;28;20055;-81
2023/09/18 15:12:40;;;;;;;30.58;20.10;;;;;;;;;;6277690;28;20101;-78
2023/09/18 15:15:43;;;;;;;31.67;20.08;;;;;;;;;;6277907;28;20051;-77
2023/09/18 15:18:45;;;;;;;31.73;21.17;;;;;;;;;;6252497;28;20050;-78
2023/09/18 15:21:47;;;;;;;34.17;21.90;;;;;;;;;;6265389;28;20045;-77
2023/09/18 15:24:53;;;;;;;33.58;22.15;;;;;;;;;;6275751;28;20076;-77
2023/09/18 15:27:56;;;;;;;30.35;20.17;;;;;;;;;;6278185;28;20053;-78
2023/09/18 15:30:58;;;;;;;30.52;20.75;;;;;;;;;;6279245;28;20447;-77
2023/09/18 15:33:59;;;;;;;34.80;19.85;;;;;;;;;;6278470;28;20053;-77
2023/09/18 15:37:03;;;;;;;35.20;19.85;;;;;;;;;;6279444;28;20283;-78
2023/09/18 15:40:08;;;;;;;27.17;19.02;;;;;;;;;;6279942;28;20049;-77
2023/09/18 15:43:10;;;;;;;31.35;20.80;;;;;;;;;;6279224;28;20072;-77
2023/09/18 15:46:13;;;;;;;59.22;34.50;;;;;;;;;;6275672;28;20044;-77
2023/09/18 15:49:14;;;;;;;36.08;22.90;;;;;;;;;;6278027;28;20061;-74
2023/09/18 15:52:16;;;;;;;36.35;19.42;;;;;;;;;;6279062;28;20041;-74
2023/09/18 15:55:20;;;;;;;29.10;19.63;;;;;;;;;;6271395;28;20051;-74
2023/09/18 15:58:24;;;;;;;28.13;15.98;;;;;;;;;;6278565;28;20041;-76
2023/09/18 16:01:25;;;;;;;15.85;6.93;;;;;;;;;;6278661;28;20049;-76
2023/09/18 16:04:27;;;;;;;8.23;3.13;;;;;;;;;;6278142;28;20045;-78
2023/09/18 16:07:28;;;;;;;8.88;2.95;;;;;;;;;;6277782;28;20052;-78
2023/09/18 16:10:32;;;;;;;7.22;2.38;;;;;;;;;;6279058;28;20390;-78
2023/09/18 16:13:33;;;;;;;11.05;4.10;;;;;;;;;;6279129;28;20095;-79
2023/09/18 16:16:35;;;;;;;6.63;2.95;;;;;;;;;;6257463;28;20218;-79
2023/09/18 16:19:57;;;;;;;6.88;3.42;;;;;;;;;;6253431;28;20061;-77
2023/09/18 16:22:59;;;;;;;12.23;5.25;;;;;;;;;;6242958;28;20096;-74
2023/09/18 16:26:03;;;;;;;17.23;7.00;;;;;;;;;;6254353;28;20109;-76
2023/09/18 16:29:05;;;;;;;10.93;6.55;;;;;;;;;;6250237;28;20049;-74
2023/09/18 16:32:07;;;;;;;8.75;5.05;;;;;;;;;;6271028;28;20116;-74
2023/09/18 16:35:09;;;;;;;12.57;5.85;;;;;;;;;;6278348;28;20049;-76
2023/09/18 16:38:10;;;;;;;11.85;5.93;;;;;;;;;;6275008;28;20049;-77
2023/09/18 16:41:13;;;;;;;9.98;5.70;;;;;;;;;;6279001;28;20072;-77
2023/09/18 16:44:15;;;;;;;11.65;5.47;;;;;;;;;;6276642;28;20083;-76
2023/09/18 16:47:18;;;;;;;11.60;5.50;;;;;;;;;;6276563;28;20252;-75
2023/09/18 16:50:20;;;;;;;8.20;5.35;;;;;;;;;;6272594;28;20280;-76
2023/09/18 16:53:22;;;;;;;8.43;5.32;;;;;;;;;;6277409;28;20095;-76
2023/09/18 16:56:25;;;;;;;6.88;5.15;;;;;;;;;;6244666;28;20046;-75
2023/09/18 16:59:30;;;;;;;11.05;6.25;;;;;;;;;;6244190;28;20065;-80
2023/09/18 17:02:32;;;;;;;10.77;5.75;;;;;;;;;;6255168;28;20059;-77
2023/09/18 17:05:34;;;;;;;14.27;6.53;;;;;;;;;;6233201;28;20113;-78
2023/09/18 17:08:36;;;;;;;12.40;7.13;;;;;;;;;;6240188;28;20907;-83
2023/09/18 17:11:39;;;;;;;11.43;6.78;;;;;;;;;;6255221;28;20045;-78
2023/09/18 17:14:41;;;;;;;11.55;7.00;;;;;;;;;;6254394;28;20056;-77
2023/09/18 17:17:43;;;;;;;12.95;7.30;;;;;;;;;;6255112;28;20136;-79
2023/09/18 17:20:44;;;;;;;13.13;7.43;;;;;;;;;;6250499;28;20373;-85
2023/09/18 17:23:46;;;;;;;13.07;7.30;;;;;;;;;;6255885;28;20280;-76
2023/09/18 17:26:49;;;;;;;10.57;6.60;;;;;;;;;;6257790;28;20360;-77
2023/09/18 17:29:51;;;;;;;12.52;6.63;;;;;;;;;;6251860;28;20053;-75
2023/09/18 17:32:52;;;;;;;9.93;6.50;;;;;;;;;;6252332;28;20053;-76
2023/09/18 17:35:54;;;;;;;11.15;5.18;;;;;;;;;;6279882;28;20080;-78
2023/09/18 17:38:56;;;;;;;10.52;4.22;;;;;;;;;;6276284;28;20041;-75
2023/09/18 17:41:59;;;;;;;6.70;3.60;;;;;;;;;;6278837;28;20057;-77
2023/09/18 17:45:01;;;;;;;4.93;3.17;;;;;;;;;;6277649;28;20066;-77
2023/09/18 17:48:06;;;;;;;5.72;3.40;;;;;;;;;;6277922;28;20328;-77
2023/09/18 17:51:08;;;;;;;10.80;3.97;;;;;;;;;;6277473;28;20072;-78
2023/09/18 17:54:09;;;;;;;8.77;4.28;;;;;;;;;;6279518;28;20301;-77